sensor_id;sensor_type;location;lat;lon;timestamp;P1;durP1;ratioP1;P2;durP2;ratioP2
43670;SDS011;29267;50.906;7.248;2023-08-08T00:01:43;5.55;;;2.53;;
43670;SDS011;29267;50.906;7.248;2023-08-08T00:04:09;5.03;;;2.58;;
43670;SDS011;29267;50.906;7.248;2023-08-08T00:06:35;4.32;;;2.10;;
43670;SDS011;29267;50.906;7.248;2023-08-08T00:09:01;5.03;;;2.15;;
43670;SDS011;29267;50.906;7.248;2023-08-08T00:11:28;4.57;;;2.22;;
43670;SDS011;29267;50.906;7.248;2023-08-08T00:13:54;3.42;;;2.00;;
43670;SDS011;29267;50.906;7.248;2023-08-08T00:16:20;4.70;;;2.00;;
43670;SDS011;29267;50.906;7.248;2023-08-08T00:18:46;4.55;;;1.95;;
43670;SDS011;29267;50.906;7.248;2023-08-08T00:21:12;2.65;;;1.80;;
43670;SDS011;29267;50.906;7.248;2023-08-08T00:23:37;4.28;;;1.90;;
43670;SDS011;29267;50.906;7.248;2023-08-08T00:26:03;8.32;;;2.25;;
43670;SDS011;29267;50.906;7.248;2023-08-08T00:28:28;4.68;;;2.47;;
43670;SDS011;29267;50.906;7.248;2023-08-08T00:30:54;8.65;;;2.03;;
43670;SDS011;29267;50.906;7.248;2023-08-08T00:33:20;3.47;;;1.83;;
43670;SDS011;29267;50.906;7.248;2023-08-08T00:35:46;4.70;;;2.15;;
43670;SDS011;29267;50.906;7.248;2023-08-08T00:38:11;6.38;;;2.13;;
43670;SDS011;29267;50.906;7.248;2023-08-08T00:40:37;4.60;;;2.03;;
43670;SDS011;29267;50.906;7.248;2023-08-08T00:43:03;6.82;;;2.50;;
43670;SDS011;29267;50.906;7.248;2023-08-08T00:45:28;6.30;;;2.75;;
43670;SDS011;29267;50.906;7.248;2023-08-08T00:47:54;6.00;;;2.65;;
43670;SDS011;29267;50.906;7.248;2023-08-08T00:50:20;7.70;;;2.85;;
43670;SDS011;29267;50.906;7.248;2023-08-08T00:52:46;7.10;;;2.78;;
43670;SDS011;29267;50.906;7.248;2023-08-08T00:55:12;3.67;;;2.20;;
43670;SDS011;29267;50.906;7.248;2023-08-08T00:57:40;5.20;;;2.42;;
43670;SDS011;29267;50.906;7.248;2023-08-08T01:00:06;10.88;;;2.72;;
43670;SDS011;29267;50.906;7.248;2023-08-08T01:02:34;3.20;;;2.13;;
43670;SDS011;29267;50.906;7.248;2023-08-08T01:04:59;7.93;;;2.88;;
43670;SDS011;29267;50.906;7.248;2023-08-08T01:10:11;7.72;;;2.33;;
43670;SDS011;29267;50.906;7.248;2023-08-08T01:12:48;6.53;;;2.33;;
43670;SDS011;29267;50.906;7.248;2023-08-08T01:15:16;5.10;;;2.17;;
43670;SDS011;29267;50.906;7.248;2023-08-08T01:17:43;6.60;;;2.10;;
43670;SDS011;29267;50.906;7.248;2023-08-08T01:20:10;2.97;;;2.03;;
43670;SDS011;29267;50.906;7.248;2023-08-08T01:22:40;5.30;;;2.60;;
43670;SDS011;29267;50.906;7.248;2023-08-08T01:25:13;5.95;;;2.40;;
43670;SDS011;29267;50.906;7.248;2023-08-08T01:27:39;8.60;;;2.95;;
43670;SDS011;29267;50.906;7.248;2023-08-08T01:30:06;5.63;;;2.38;;
43670;SDS011;29267;50.906;7.248;2023-08-08T01:32:32;4.35;;;2.53;;
43670;SDS011;29267;50.906;7.248;2023-08-08T01:34:58;5.38;;;2.42;;
43670;SDS011;29267;50.906;7.248;2023-08-08T01:37:24;4.75;;;2.50;;
43670;SDS011;29267;50.906;7.248;2023-08-08T01:39:53;4.40;;;3.13;;
43670;SDS011;29267;50.906;7.248;2023-08-08T01:42:23;5.35;;;2.20;;
43670;SDS011;29267;50.906;7.248;2023-08-08T01:44:49;2.92;;;2.20;;
43670;SDS011;29267;50.906;7.248;2023-08-08T01:47:15;5.38;;;2.30;;
43670;SDS011;29267;50.906;7.248;2023-08-08T01:49:41;6.43;;;2.45;;
43670;SDS011;29267;50.906;7.248;2023-08-08T01:52:06;4.13;;;1.90;;
43670;SDS011;29267;50.906;7.248;2023-08-08T01:54:32;5.82;;;2.63;;
43670;SDS011;29267;50.906;7.248;2023-08-08T01:56:57;4.28;;;2.55;;
43670;SDS011;29267;50.906;7.248;2023-08-08T01:59:23;3.53;;;2.17;;
43670;SDS011;29267;50.906;7.248;2023-08-08T02:01:49;4.93;;;2.13;;
43670;SDS011;29267;50.906;7.248;2023-08-08T02:04:14;4.57;;;2.78;;
43670;SDS011;29267;50.906;7.248;2023-08-08T02:06:40;7.28;;;2.33;;
43670;SDS011;29267;50.906;7.248;2023-08-08T02:09:06;6.32;;;2.50;;
43670;SDS011;29267;50.906;7.248;2023-08-08T02:11:32;3.65;;;1.83;;
43670;SDS011;29267;50.906;7.248;2023-08-08T02:13:57;4.47;;;2.40;;
43670;SDS011;29267;50.906;7.248;2023-08-08T02:16:23;3.63;;;2.10;;
43670;SDS011;29267;50.906;7.248;2023-08-08T02:18:49;2.53;;;1.50;;
43670;SDS011;29267;50.906;7.248;2023-08-08T02:21:14;5.13;;;2.08;;
43670;SDS011;29267;50.906;7.248;2023-08-08T02:23:40;6.90;;;2.25;;
43670;SDS011;29267;50.906;7.248;2023-08-08T02:26:05;4.28;;;2.83;;
43670;SDS011;29267;50.906;7.248;2023-08-08T02:28:31;4.15;;;2.00;;
43670;SDS011;29267;50.906;7.248;2023-08-08T02:30:57;5.75;;;2.33;;
43670;SDS011;29267;50.906;7.248;2023-08-08T02:33:22;5.35;;;2.10;;
43670;SDS011;29267;50.906;7.248;2023-08-08T02:35:48;4.55;;;2.33;;
43670;SDS011;29267;50.906;7.248;2023-08-08T02:38:13;4.43;;;2.35;;
43670;SDS011;29267;50.906;7.248;2023-08-08T02:40:39;6.20;;;2.03;;
43670;SDS011;29267;50.906;7.248;2023-08-08T02:43:05;3.67;;;2.20;;
43670;SDS011;29267;50.906;7.248;2023-08-08T02:45:30;4.45;;;2.58;;
43670;SDS011;29267;50.906;7.248;2023-08-08T02:47:56;2.97;;;1.90;;
43670;SDS011;29267;50.906;7.248;2023-08-08T02:50:21;5.20;;;2.22;;
43670;SDS011;29267;50.906;7.248;2023-08-08T02:52:47;5.35;;;2.47;;
43670;SDS011;29267;50.906;7.248;2023-08-08T02:55:12;3.40;;;1.90;;
43670;SDS011;29267;50.906;7.248;2023-08-08T02:57:39;3.55;;;2.40;;
43670;SDS011;29267;50.906;7.248;2023-08-08T03:00:04;5.63;;;2.40;;
43670;SDS011;29267;50.906;7.248;2023-08-08T03:02:33;7.15;;;3.03;;
43670;SDS011;29267;50.906;7.248;2023-08-08T03:04:59;3.92;;;2.60;;
43670;SDS011;29267;50.906;7.248;2023-08-08T03:07:24;4.85;;;2.63;;
43670;SDS011;29267;50.906;7.248;2023-08-08T03:09:50;4.03;;;2.53;;
43670;SDS011;29267;50.906;7.248;2023-08-08T03:12:15;3.83;;;2.40;;
43670;SDS011;29267;50.906;7.248;2023-08-08T03:14:41;5.10;;;2.75;;
43670;SDS011;29267;50.906;7.248;2023-08-08T03:17:07;4.35;;;2.60;;
43670;SDS011;29267;50.906;7.248;2023-08-08T03:19:32;6.65;;;3.05;;
43670;SDS011;29267;50.906;7.248;2023-08-08T03:21:58;7.20;;;3.05;;
43670;SDS011;29267;50.906;7.248;2023-08-08T03:24:23;7.13;;;2.70;;
43670;SDS011;29267;50.906;7.248;2023-08-08T03:26:49;3.47;;;2.42;;
43670;SDS011;29267;50.906;7.248;2023-08-08T03:29:15;8.52;;;3.00;;
43670;SDS011;29267;50.906;7.248;2023-08-08T03:31:40;4.90;;;3.08;;
43670;SDS011;29267;50.906;7.248;2023-08-08T03:34:06;11.93;;;3.33;;
43670;SDS011;29267;50.906;7.248;2023-08-08T03:36:31;10.80;;;3.90;;
43670;SDS011;29267;50.906;7.248;2023-08-08T03:38:57;6.15;;;3.15;;
43670;SDS011;29267;50.906;7.248;2023-08-08T03:41:22;4.70;;;3.15;;
43670;SDS011;29267;50.906;7.248;2023-08-08T03:43:48;5.63;;;3.58;;
43670;SDS011;29267;50.906;7.248;2023-08-08T03:46:14;6.55;;;3.67;;
43670;SDS011;29267;50.906;7.248;2023-08-08T03:48:39;5.20;;;3.70;;
43670;SDS011;29267;50.906;7.248;2023-08-08T03:51:05;6.63;;;3.22;;
43670;SDS011;29267;50.906;7.248;2023-08-08T03:53:31;9.25;;;3.42;;
43670;SDS011;29267;50.906;7.248;2023-08-08T03:55:57;7.38;;;3.75;;
43670;SDS011;29267;50.906;7.248;2023-08-08T03:58:23;8.43;;;3.92;;
43670;SDS011;29267;50.906;7.248;2023-08-08T04:00:49;7.30;;;3.47;;
43670;SDS011;29267;50.906;7.248;2023-08-08T04:03:15;5.05;;;3.40;;
43670;SDS011;29267;50.906;7.248;2023-08-08T04:05:44;6.60;;;3.22;;
43670;SDS011;29267;50.906;7.248;2023-08-08T04:08:13;14.95;;;3.53;;
43670;SDS011;29267;50.906;7.248;2023-08-08T04:10:40;7.65;;;3.97;;
43670;SDS011;29267;50.906;7.248;2023-08-08T04:13:05;9.13;;;4.00;;
43670;SDS011;29267;50.906;7.248;2023-08-08T04:15:31;11.32;;;3.90;;
43670;SDS011;29267;50.906;7.248;2023-08-08T04:17:56;10.63;;;3.50;;
43670;SDS011;29267;50.906;7.248;2023-08-08T04:20:22;8.48;;;4.22;;
43670;SDS011;29267;50.906;7.248;2023-08-08T04:22:48;6.03;;;3.72;;
43670;SDS011;29267;50.906;7.248;2023-08-08T04:25:14;6.55;;;3.38;;
43670;SDS011;29267;50.906;7.248;2023-08-08T04:27:40;4.90;;;3.50;;
43670;SDS011;29267;50.906;7.248;2023-08-08T04:30:06;11.13;;;3.50;;
43670;SDS011;29267;50.906;7.248;2023-08-08T04:32:32;5.47;;;3.78;;
43670;SDS011;29267;50.906;7.248;2023-08-08T04:34:58;9.48;;;3.55;;
43670;SDS011;29267;50.906;7.248;2023-08-08T04:37:23;5.78;;;3.00;;
43670;SDS011;29267;50.906;7.248;2023-08-08T04:39:49;5.43;;;3.30;;
43670;SDS011;29267;50.906;7.248;2023-08-08T04:42:14;9.02;;;3.60;;
43670;SDS011;29267;50.906;7.248;2023-08-08T04:44:40;6.45;;;3.03;;
43670;SDS011;29267;50.906;7.248;2023-08-08T04:47:05;4.15;;;3.17;;
43670;SDS011;29267;50.906;7.248;2023-08-08T04:49:31;4.88;;;3.17;;
43670;SDS011;29267;50.906;7.248;2023-08-08T04:51:57;6.10;;;2.70;;
43670;SDS011;29267;50.906;7.248;2023-08-08T04:54:22;7.30;;;2.60;;
43670;SDS011;29267;50.906;7.248;2023-08-08T04:56:48;9.40;;;2.83;;
43670;SDS011;29267;50.906;7.248;2023-08-08T04:59:13;5.25;;;2.53;;
43670;SDS011;29267;50.906;7.248;2023-08-08T05:01:39;5.95;;;2.40;;
43670;SDS011;29267;50.906;7.248;2023-08-08T05:04:04;3.28;;;2.15;;
43670;SDS011;29267;50.906;7.248;2023-08-08T05:06:30;11.98;;;3.25;;
43670;SDS011;29267;50.906;7.248;2023-08-08T05:08:56;5.03;;;2.33;;
43670;SDS011;29267;50.906;7.248;2023-08-08T05:11:22;12.55;;;2.15;;
43670;SDS011;29267;50.906;7.248;2023-08-08T05:13:47;4.55;;;2.75;;
43670;SDS011;29267;50.906;7.248;2023-08-08T05:16:13;3.78;;;1.98;;
43670;SDS011;29267;50.906;7.248;2023-08-08T05:18:39;3.95;;;2.08;;
43670;SDS011;29267;50.906;7.248;2023-08-08T05:21:05;2.35;;;1.63;;
43670;SDS011;29267;50.906;7.248;2023-08-08T05:23:31;2.30;;;1.90;;
43670;SDS011;29267;50.906;7.248;2023-08-08T05:25:57;7.10;;;2.00;;
43670;SDS011;29267;50.906;7.248;2023-08-08T05:28:22;3.85;;;1.95;;
43670;SDS011;29267;50.906;7.248;2023-08-08T05:30:48;5.03;;;2.05;;
43670;SDS011;29267;50.906;7.248;2023-08-08T05:33:13;6.93;;;1.98;;
43670;SDS011;29267;50.906;7.248;2023-08-08T05:35:39;3.40;;;1.77;;
43670;SDS011;29267;50.906;7.248;2023-08-08T05:38:04;10.05;;;2.13;;
43670;SDS011;29267;50.906;7.248;2023-08-08T05:40:30;5.45;;;2.00;;
43670;SDS011;29267;50.906;7.248;2023-08-08T05:42:56;4.35;;;1.65;;
43670;SDS011;29267;50.906;7.248;2023-08-08T05:45:21;2.20;;;1.80;;
43670;SDS011;29267;50.906;7.248;2023-08-08T05:47:47;2.47;;;1.23;;
43670;SDS011;29267;50.906;7.248;2023-08-08T05:50:12;7.47;;;1.98;;
43670;SDS011;29267;50.906;7.248;2023-08-08T05:52:38;4.15;;;1.90;;
43670;SDS011;29267;50.906;7.248;2023-08-08T05:55:03;4.80;;;2.13;;
43670;SDS011;29267;50.906;7.248;2023-08-08T05:57:29;3.50;;;1.88;;
43670;SDS011;29267;50.906;7.248;2023-08-08T05:59:55;4.05;;;1.80;;
43670;SDS011;29267;50.906;7.248;2023-08-08T06:02:21;3.45;;;2.03;;
43670;SDS011;29267;50.906;7.248;2023-08-08T06:04:46;4.70;;;1.73;;
43670;SDS011;29267;50.906;7.248;2023-08-08T06:07:12;3.83;;;2.00;;
43670;SDS011;29267;50.906;7.248;2023-08-08T06:09:37;5.13;;;2.17;;
43670;SDS011;29267;50.906;7.248;2023-08-08T06:12:03;3.55;;;1.67;;
43670;SDS011;29267;50.906;7.248;2023-08-08T06:14:30;7.60;;;2.80;;
43670;SDS011;29267;50.906;7.248;2023-08-08T06:16:55;5.75;;;2.80;;
43670;SDS011;29267;50.906;7.248;2023-08-08T06:19:21;6.07;;;3.10;;
43670;SDS011;29267;50.906;7.248;2023-08-08T06:21:46;49.67;;;25.17;;
43670;SDS011;29267;50.906;7.248;2023-08-08T06:24:12;24.00;;;14.30;;
43670;SDS011;29267;50.906;7.248;2023-08-08T06:26:38;42.83;;;20.58;;
43670;SDS011;29267;50.906;7.248;2023-08-08T06:29:03;17.98;;;8.77;;
43670;SDS011;29267;50.906;7.248;2023-08-08T06:31:29;9.98;;;4.07;;
43670;SDS011;29267;50.906;7.248;2023-08-08T06:33:55;8.57;;;2.75;;
43670;SDS011;29267;50.906;7.248;2023-08-08T06:36:21;11.27;;;2.00;;
43670;SDS011;29267;50.906;7.248;2023-08-08T06:38:46;6.93;;;2.88;;
43670;SDS011;29267;50.906;7.248;2023-08-08T06:41:12;5.28;;;2.03;;
43670;SDS011;29267;50.906;7.248;2023-08-08T06:43:37;5.15;;;2.42;;
43670;SDS011;29267;50.906;7.248;2023-08-08T06:46:03;7.00;;;2.40;;
43670;SDS011;29267;50.906;7.248;2023-08-08T06:48:29;5.32;;;2.35;;
43670;SDS011;29267;50.906;7.248;2023-08-08T06:50:55;5.75;;;3.03;;
43670;SDS011;29267;50.906;7.248;2023-08-08T06:53:21;8.48;;;3.05;;
43670;SDS011;29267;50.906;7.248;2023-08-08T06:55:46;9.85;;;2.72;;
43670;SDS011;29267;50.906;7.248;2023-08-08T06:58:12;5.97;;;2.63;;
43670;SDS011;29267;50.906;7.248;2023-08-08T07:00:37;9.25;;;4.20;;
43670;SDS011;29267;50.906;7.248;2023-08-08T07:03:03;10.00;;;5.15;;
43670;SDS011;29267;50.906;7.248;2023-08-08T07:05:29;11.35;;;5.22;;
43670;SDS011;29267;50.906;7.248;2023-08-08T07:07:54;17.33;;;7.57;;
43670;SDS011;29267;50.906;7.248;2023-08-08T07:10:20;19.77;;;9.85;;
43670;SDS011;29267;50.906;7.248;2023-08-08T07:12:46;28.25;;;13.68;;
43670;SDS011;29267;50.906;7.248;2023-08-08T07:15:11;30.95;;;12.45;;
43670;SDS011;29267;50.906;7.248;2023-08-08T07:17:37;26.50;;;10.15;;
43670;SDS011;29267;50.906;7.248;2023-08-08T07:20:03;17.48;;;7.10;;
43670;SDS011;29267;50.906;7.248;2023-08-08T07:22:30;30.02;;;12.57;;
43670;SDS011;29267;50.906;7.248;2023-08-08T07:24:57;14.55;;;6.28;;
43670;SDS011;29267;50.906;7.248;2023-08-08T07:27:23;11.80;;;5.25;;
43670;SDS011;29267;50.906;7.248;2023-08-08T07:29:49;6.45;;;4.20;;
43670;SDS011;29267;50.906;7.248;2023-08-08T07:32:14;9.68;;;4.20;;
43670;SDS011;29267;50.906;7.248;2023-08-08T07:34:40;4.57;;;2.60;;
43670;SDS011;29267;50.906;7.248;2023-08-08T07:37:06;11.05;;;3.63;;
43670;SDS011;29267;50.906;7.248;2023-08-08T07:39:31;10.20;;;3.20;;
43670;SDS011;29267;50.906;7.248;2023-08-08T07:41:57;11.65;;;3.22;;
43670;SDS011;29267;50.906;7.248;2023-08-08T07:44:22;13.05;;;4.53;;
43670;SDS011;29267;50.906;7.248;2023-08-08T07:46:48;6.55;;;2.25;;
43670;SDS011;29267;50.906;7.248;2023-08-08T07:49:14;3.78;;;1.92;;
43670;SDS011;29267;50.906;7.248;2023-08-08T07:51:40;9.93;;;2.15;;
43670;SDS011;29267;50.906;7.248;2023-08-08T07:54:05;10.00;;;2.25;;
43670;SDS011;29267;50.906;7.248;2023-08-08T07:56:35;13.95;;;2.75;;
43670;SDS011;29267;50.906;7.248;2023-08-08T07:59:01;7.05;;;2.80;;
43670;SDS011;29267;50.906;7.248;2023-08-08T08:01:27;6.20;;;2.13;;
43670;SDS011;29267;50.906;7.248;2023-08-08T08:03:53;9.57;;;2.53;;
43670;SDS011;29267;50.906;7.248;2023-08-08T08:06:19;13.85;;;2.72;;
43670;SDS011;29267;50.906;7.248;2023-08-08T08:08:44;5.55;;;2.45;;
43670;SDS011;29267;50.906;7.248;2023-08-08T08:11:10;7.15;;;2.38;;
43670;SDS011;29267;50.906;7.248;2023-08-08T08:13:37;7.15;;;2.20;;
43670;SDS011;29267;50.906;7.248;2023-08-08T08:16:04;8.60;;;2.28;;
43670;SDS011;29267;50.906;7.248;2023-08-08T08:18:30;8.95;;;2.75;;
43670;SDS011;29267;50.906;7.248;2023-08-08T08:20:55;5.40;;;2.20;;
43670;SDS011;29267;50.906;7.248;2023-08-08T08:23:21;3.95;;;1.90;;
43670;SDS011;29267;50.906;7.248;2023-08-08T08:25:47;8.75;;;2.28;;
43670;SDS011;29267;50.906;7.248;2023-08-08T08:28:13;8.40;;;2.22;;
43670;SDS011;29267;50.906;7.248;2023-08-08T08:30:39;8.50;;;1.92;;
43670;SDS011;29267;50.906;7.248;2023-08-08T08:33:05;10.40;;;2.65;;
43670;SDS011;29267;50.906;7.248;2023-08-08T08:35:32;9.35;;;3.25;;
43670;SDS011;29267;50.906;7.248;2023-08-08T08:38:01;9.02;;;2.38;;
43670;SDS011;29267;50.906;7.248;2023-08-08T08:40:27;4.10;;;1.90;;
43670;SDS011;29267;50.906;7.248;2023-08-08T08:42:54;5.97;;;2.50;;
43670;SDS011;29267;50.906;7.248;2023-08-08T08:45:20;6.53;;;1.95;;
43670;SDS011;29267;50.906;7.248;2023-08-08T08:47:47;4.38;;;2.47;;
43670;SDS011;29267;50.906;7.248;2023-08-08T08:50:18;7.50;;;2.45;;
43670;SDS011;29267;50.906;7.248;2023-08-08T08:52:44;8.38;;;2.60;;
43670;SDS011;29267;50.906;7.248;2023-08-08T08:55:10;13.02;;;2.50;;
43670;SDS011;29267;50.906;7.248;2023-08-08T08:57:36;6.93;;;2.90;;
43670;SDS011;29267;50.906;7.248;2023-08-08T09:00:03;8.23;;;2.72;;
43670;SDS011;29267;50.906;7.248;2023-08-08T09:02:30;11.23;;;3.20;;
43670;SDS011;29267;50.906;7.248;2023-08-08T09:04:56;6.45;;;3.95;;
43670;SDS011;29267;50.906;7.248;2023-08-08T09:07:23;12.18;;;3.30;;
43670;SDS011;29267;50.906;7.248;2023-08-08T09:09:52;8.20;;;3.40;;
43670;SDS011;29267;50.906;7.248;2023-08-08T09:12:18;6.80;;;3.80;;
43670;SDS011;29267;50.906;7.248;2023-08-08T09:14:44;5.15;;;3.17;;
43670;SDS011;29267;50.906;7.248;2023-08-08T09:17:10;11.13;;;3.58;;
43670;SDS011;29267;50.906;7.248;2023-08-08T09:19:38;8.85;;;3.30;;
43670;SDS011;29267;50.906;7.248;2023-08-08T09:22:06;5.78;;;2.70;;
43670;SDS011;29267;50.906;7.248;2023-08-08T09:24:32;9.20;;;2.83;;
43670;SDS011;29267;50.906;7.248;2023-08-08T09:26:58;7.05;;;2.47;;
43670;SDS011;29267;50.906;7.248;2023-08-08T09:29:23;7.93;;;2.85;;
43670;SDS011;29267;50.906;7.248;2023-08-08T09:31:50;6.97;;;2.72;;
43670;SDS011;29267;50.906;7.248;2023-08-08T09:34:15;6.32;;;2.25;;
43670;SDS011;29267;50.906;7.248;2023-08-08T09:36:41;5.45;;;2.67;;
43670;SDS011;29267;50.906;7.248;2023-08-08T09:39:06;4.22;;;2.35;;
43670;SDS011;29267;50.906;7.248;2023-08-08T09:41:32;9.73;;;2.38;;
43670;SDS011;29267;50.906;7.248;2023-08-08T09:43:58;7.93;;;2.33;;
43670;SDS011;29267;50.906;7.248;2023-08-08T09:46:24;9.43;;;2.65;;
43670;SDS011;29267;50.906;7.248;2023-08-08T09:48:50;9.93;;;3.03;;
43670;SDS011;29267;50.906;7.248;2023-08-08T09:51:16;12.02;;;3.38;;
43670;SDS011;29267;50.906;7.248;2023-08-08T09:53:42;5.55;;;2.33;;
43670;SDS011;29267;50.906;7.248;2023-08-08T09:56:09;5.38;;;2.42;;
43670;SDS011;29267;50.906;7.248;2023-08-08T09:58:35;6.03;;;2.03;;
43670;SDS011;29267;50.906;7.248;2023-08-08T10:01:01;6.15;;;1.80;;
43670;SDS011;29267;50.906;7.248;2023-08-08T10:03:27;6.13;;;1.83;;
43670;SDS011;29267;50.906;7.248;2023-08-08T10:05:53;7.10;;;1.90;;
43670;SDS011;29267;50.906;7.248;2023-08-08T10:08:19;3.17;;;1.88;;
43670;SDS011;29267;50.906;7.248;2023-08-08T10:10:45;10.73;;;1.80;;
43670;SDS011;29267;50.906;7.248;2023-08-08T10:13:22;5.25;;;1.67;;
43670;SDS011;29267;50.906;7.248;2023-08-08T10:15:49;8.05;;;2.00;;
43670;SDS011;29267;50.906;7.248;2023-08-08T10:18:15;5.85;;;1.75;;
43670;SDS011;29267;50.906;7.248;2023-08-08T10:20:46;5.65;;;1.73;;
43670;SDS011;29267;50.906;7.248;2023-08-08T10:23:14;4.22;;;1.50;;
43670;SDS011;29267;50.906;7.248;2023-08-08T10:25:44;2.10;;;1.38;;
43670;SDS011;29267;50.906;7.248;2023-08-08T10:28:12;3.30;;;1.25;;
43670;SDS011;29267;50.906;7.248;2023-08-08T10:33:27;9.10;;;1.30;;
43670;SDS011;29267;50.906;7.248;2023-08-08T10:36:04;7.47;;;1.65;;
43670;SDS011;29267;50.906;7.248;2023-08-08T10:38:44;9.90;;;1.95;;
43670;SDS011;29267;50.906;7.248;2023-08-08T10:41:19;6.40;;;1.45;;
43670;SDS011;29267;50.906;7.248;2023-08-08T10:43:53;5.00;;;1.83;;
43670;SDS011;29267;50.906;7.248;2023-08-08T10:48:54;4.55;;;1.30;;
43670;SDS011;29267;50.906;7.248;2023-08-08T10:51:21;3.47;;;1.50;;
43670;SDS011;29267;50.906;7.248;2023-08-08T10:53:50;3.72;;;1.65;;
43670;SDS011;29267;50.906;7.248;2023-08-08T10:56:17;11.88;;;2.08;;
43670;SDS011;29267;50.906;7.248;2023-08-08T10:58:47;4.13;;;1.30;;
43670;SDS011;29267;50.906;7.248;2023-08-08T11:01:13;3.28;;;1.40;;
43670;SDS011;29267;50.906;7.248;2023-08-08T11:03:39;5.60;;;1.70;;
43670;SDS011;29267;50.906;7.248;2023-08-08T11:06:06;2.70;;;1.35;;
43670;SDS011;29267;50.906;7.248;2023-08-08T11:08:33;3.67;;;1.13;;
43670;SDS011;29267;50.906;7.248;2023-08-08T11:11:01;5.82;;;1.95;;
43670;SDS011;29267;50.906;7.248;2023-08-08T11:13:27;3.25;;;1.33;;
43670;SDS011;29267;50.906;7.248;2023-08-08T11:15:52;7.13;;;2.30;;
43670;SDS011;29267;50.906;7.248;2023-08-08T11:18:18;5.13;;;1.67;;
43670;SDS011;29267;50.906;7.248;2023-08-08T11:20:44;4.40;;;1.95;;
43670;SDS011;29267;50.906;7.248;2023-08-08T11:23:10;4.78;;;1.30;;
43670;SDS011;29267;50.906;7.248;2023-08-08T11:25:39;3.05;;;1.38;;
43670;SDS011;29267;50.906;7.248;2023-08-08T11:28:07;6.45;;;1.30;;
43670;SDS011;29267;50.906;7.248;2023-08-08T11:30:33;7.47;;;1.73;;
43670;SDS011;29267;50.906;7.248;2023-08-08T11:33:03;2.75;;;1.33;;
43670;SDS011;29267;50.906;7.248;2023-08-08T11:35:29;1.77;;;1.33;;
43670;SDS011;29267;50.906;7.248;2023-08-08T11:37:58;8.13;;;1.75;;
43670;SDS011;29267;50.906;7.248;2023-08-08T11:40:25;5.20;;;1.33;;
43670;SDS011;29267;50.906;7.248;2023-08-08T11:42:52;2.25;;;1.30;;
43670;SDS011;29267;50.906;7.248;2023-08-08T11:45:18;5.68;;;2.08;;
43670;SDS011;29267;50.906;7.248;2023-08-08T11:47:47;9.32;;;2.17;;
43670;SDS011;29267;50.906;7.248;2023-08-08T11:50:14;10.95;;;2.80;;
43670;SDS011;29267;50.906;7.248;2023-08-08T11:52:40;4.07;;;1.33;;
43670;SDS011;29267;50.906;7.248;2023-08-08T11:55:08;4.82;;;1.40;;
43670;SDS011;29267;50.906;7.248;2023-08-08T11:57:35;5.35;;;1.98;;
43670;SDS011;29267;50.906;7.248;2023-08-08T12:00:05;3.75;;;1.58;;
43670;SDS011;29267;50.906;7.248;2023-08-08T12:02:33;6.22;;;2.30;;
43670;SDS011;29267;50.906;7.248;2023-08-08T12:05:06;4.47;;;1.50;;
43670;SDS011;29267;50.906;7.248;2023-08-08T12:07:35;5.57;;;1.55;;
43670;SDS011;29267;50.906;7.248;2023-08-08T12:10:05;3.03;;;1.25;;
43670;SDS011;29267;50.906;7.248;2023-08-08T12:12:31;2.83;;;1.27;;
43670;SDS011;29267;50.906;7.248;2023-08-08T12:15:05;9.90;;;1.42;;
43670;SDS011;29267;50.906;7.248;2023-08-08T12:17:31;6.72;;;2.17;;
43670;SDS011;29267;50.906;7.248;2023-08-08T12:20:00;3.63;;;1.60;;
43670;SDS011;29267;50.906;7.248;2023-08-08T12:22:26;4.13;;;2.38;;
43670;SDS011;29267;50.906;7.248;2023-08-08T12:24:51;7.25;;;2.13;;
43670;SDS011;29267;50.906;7.248;2023-08-08T12:27:17;3.88;;;1.33;;
43670;SDS011;29267;50.906;7.248;2023-08-08T12:29:43;7.55;;;1.73;;
43670;SDS011;29267;50.906;7.248;2023-08-08T12:32:09;7.68;;;1.70;;
43670;SDS011;29267;50.906;7.248;2023-08-08T12:34:35;5.55;;;1.70;;
43670;SDS011;29267;50.906;7.248;2023-08-08T12:37:00;3.13;;;1.40;;
43670;SDS011;29267;50.906;7.248;2023-08-08T12:39:27;7.43;;;1.35;;
43670;SDS011;29267;50.906;7.248;2023-08-08T12:41:53;3.83;;;1.38;;
43670;SDS011;29267;50.906;7.248;2023-08-08T12:44:19;5.30;;;1.60;;
43670;SDS011;29267;50.906;7.248;2023-08-08T12:46:44;3.78;;;1.20;;
43670;SDS011;29267;50.906;7.248;2023-08-08T12:49:10;5.00;;;1.42;;
43670;SDS011;29267;50.906;7.248;2023-08-08T12:51:35;2.80;;;1.42;;
43670;SDS011;29267;50.906;7.248;2023-08-08T12:54:01;4.82;;;1.35;;
43670;SDS011;29267;50.906;7.248;2023-08-08T12:56:27;4.30;;;1.38;;
43670;SDS011;29267;50.906;7.248;2023-08-08T12:58:52;5.03;;;1.50;;
43670;SDS011;29267;50.906;7.248;2023-08-08T13:01:18;3.83;;;1.38;;
43670;SDS011;29267;50.906;7.248;2023-08-08T13:03:43;6.20;;;1.25;;
43670;SDS011;29267;50.906;7.248;2023-08-08T13:06:09;6.18;;;2.58;;
43670;SDS011;29267;50.906;7.248;2023-08-08T13:08:36;3.28;;;1.48;;
43670;SDS011;29267;50.906;7.248;2023-08-08T13:11:02;4.00;;;1.67;;
43670;SDS011;29267;50.906;7.248;2023-08-08T13:13:28;5.43;;;1.25;;
43670;SDS011;29267;50.906;7.248;2023-08-08T13:15:54;3.92;;;1.27;;
43670;SDS011;29267;50.906;7.248;2023-08-08T13:18:19;3.83;;;1.70;;
43670;SDS011;29267;50.906;7.248;2023-08-08T13:20:45;5.35;;;1.42;;
43670;SDS011;29267;50.906;7.248;2023-08-08T13:23:11;5.70;;;1.27;;
43670;SDS011;29267;50.906;7.248;2023-08-08T13:25:36;3.63;;;1.20;;
43670;SDS011;29267;50.906;7.248;2023-08-08T13:28:02;5.80;;;1.35;;
43670;SDS011;29267;50.906;7.248;2023-08-08T13:30:28;6.05;;;1.60;;
43670;SDS011;29267;50.906;7.248;2023-08-08T13:32:54;7.30;;;1.35;;
43670;SDS011;29267;50.906;7.248;2023-08-08T13:35:20;4.13;;;1.35;;
43670;SDS011;29267;50.906;7.248;2023-08-08T13:37:45;4.45;;;1.83;;
43670;SDS011;29267;50.906;7.248;2023-08-08T13:40:15;5.57;;;2.50;;
43670;SDS011;29267;50.906;7.248;2023-08-08T13:42:41;7.22;;;1.70;;
43670;SDS011;29267;50.906;7.248;2023-08-08T13:45:09;5.40;;;1.63;;
43670;SDS011;29267;50.906;7.248;2023-08-08T13:47:35;5.88;;;1.20;;
43670;SDS011;29267;50.906;7.248;2023-08-08T13:50:00;9.18;;;2.17;;
43670;SDS011;29267;50.906;7.248;2023-08-08T13:52:26;4.15;;;1.90;;
43670;SDS011;29267;50.906;7.248;2023-08-08T13:54:52;6.88;;;1.60;;
43670;SDS011;29267;50.906;7.248;2023-08-08T13:57:20;5.18;;;1.52;;
43670;SDS011;29267;50.906;7.248;2023-08-08T13:59:45;7.30;;;1.42;;
43670;SDS011;29267;50.906;7.248;2023-08-08T14:02:11;7.70;;;1.48;;
43670;SDS011;29267;50.906;7.248;2023-08-08T14:04:37;5.90;;;1.70;;
43670;SDS011;29267;50.906;7.248;2023-08-08T14:07:02;6.53;;;1.30;;
43670;SDS011;29267;50.906;7.248;2023-08-08T14:09:28;6.53;;;2.20;;
43670;SDS011;29267;50.906;7.248;2023-08-08T14:11:53;2.92;;;1.10;;
43670;SDS011;29267;50.906;7.248;2023-08-08T14:14:19;2.35;;;0.95;;
43670;SDS011;29267;50.906;7.248;2023-08-08T14:16:44;4.78;;;1.40;;
43670;SDS011;29267;50.906;7.248;2023-08-08T14:19:10;10.90;;;1.52;;
43670;SDS011;29267;50.906;7.248;2023-08-08T14:21:36;4.50;;;1.60;;
43670;SDS011;29267;50.906;7.248;2023-08-08T14:24:01;3.65;;;1.10;;
43670;SDS011;29267;50.906;7.248;2023-08-08T14:26:28;9.07;;;1.50;;
43670;SDS011;29267;50.906;7.248;2023-08-08T14:28:54;5.82;;;1.33;;
43670;SDS011;29267;50.906;7.248;2023-08-08T14:31:19;2.78;;;1.27;;
43670;SDS011;29267;50.906;7.248;2023-08-08T14:33:45;3.90;;;1.52;;
43670;SDS011;29267;50.906;7.248;2023-08-08T14:36:10;5.28;;;1.42;;
43670;SDS011;29267;50.906;7.248;2023-08-08T14:38:36;3.63;;;1.10;;
43670;SDS011;29267;50.906;7.248;2023-08-08T14:41:02;5.25;;;1.50;;
43670;SDS011;29267;50.906;7.248;2023-08-08T14:43:27;8.52;;;1.85;;
43670;SDS011;29267;50.906;7.248;2023-08-08T14:45:53;3.47;;;1.85;;
43670;SDS011;29267;50.906;7.248;2023-08-08T14:48:18;6.20;;;1.65;;